createdAt,value
2015-09-27T00:00:13.403Z,100487
2015-09-27T00:00:31.763Z,100492
2015-09-27T00:00:50.122Z,100489
2015-09-27T00:01:08.484Z,100484
2015-09-27T00:01:26.844Z,100487
2015-09-27T00:01:45.203Z,100484
2015-09-27T00:02:03.703Z,100484
2015-09-27T00:02:22.066Z,100476
2015-09-27T00:02:40.409Z,100489
2015-09-27T00:02:58.784Z,100489
2015-09-27T00:03:17.146Z,100481
2015-09-27T00:03:35.489Z,100489
2015-09-27T00:03:53.849Z,100487
2015-09-27T00:04:12.211Z,100487
2015-09-27T00:04:30.571Z,100481
2015-09-27T00:04:49.071Z,100487
2015-09-27T00:05:07.430Z,100495
2015-09-27T00:05:25.792Z,100487
2015-09-27T00:05:44.152Z,100487
2015-09-27T00:06:02.511Z,100487
2015-09-27T00:06:20.873Z,100501
2015-09-27T00:06:39.233Z,100489
2015-09-27T00:06:57.592Z,100487
2015-09-27T00:07:15.954Z,100489
2015-09-27T00:07:34.329Z,100487
2015-09-27T00:07:52.672Z,100495
2015-09-27T00:08:11.032Z,100487
2015-09-27T00:08:29.394Z,100495
2015-09-27T00:08:47.753Z,100481
2015-09-27T00:09:06.113Z,100481
2015-09-27T00:09:24.475Z,100489
2015-09-27T00:09:42.835Z,100487
2015-09-27T00:10:01.194Z,100495
2015-09-27T00:10:19.555Z,100495
2015-09-27T00:10:37.915Z,100498
2015-09-27T00:10:56.399Z,100498
2015-09-27T00:11:14.758Z,100487
2015-09-27T00:11:33.121Z,100492
2015-09-27T00:11:51.480Z,100489
2015-09-27T00:12:09.840Z,100495
2015-09-27T00:12:28.202Z,100484
2015-09-27T00:12:46.561Z,100492
2015-09-27T00:13:04.921Z,100489
2015-09-27T00:13:23.283Z,100492
2015-09-27T00:13:41.642Z,100495
2015-09-27T00:14:00.002Z,100495
2015-09-27T00:14:18.361Z,100492
2015-09-27T00:14:36.724Z,100492
2015-09-27T00:14:55.083Z,100484
2015-09-27T00:15:13.442Z,100495
2015-09-27T00:15:31.804Z,100495
2015-09-27T00:15:50.163Z,100498
2015-09-27T00:16:08.522Z,100495
2015-09-27T00:16:26.885Z,100495
2015-09-27T00:16:45.244Z,100498
2015-09-27T00:17:03.604Z,100492
2015-09-27T00:17:21.963Z,100492
2015-09-27T00:17:40.325Z,100489
2015-09-27T00:17:58.685Z,100487
2015-09-27T00:18:17.044Z,100484
2015-09-27T00:18:35.406Z,100489
2015-09-27T00:18:53.766Z,100501
2015-09-27T00:19:12.125Z,100498
2015-09-27T00:19:30.487Z,100506
2015-09-27T00:19:48.846Z,100495
2015-09-27T00:20:07.205Z,100481
2015-09-27T00:20:25.568Z,100487
2015-09-27T00:20:43.927Z,100498
2015-09-27T00:21:02.286Z,100492
2015-09-27T00:21:20.646Z,100487
2015-09-27T00:21:39.133Z,100492
2015-09-27T00:21:57.493Z,100489
2015-09-27T00:22:15.852Z,100484
2015-09-27T00:22:34.213Z,100492
2015-09-27T00:22:52.573Z,100492
2015-09-27T00:23:10.932Z,100498
2015-09-27T00:23:29.294Z,100492
2015-09-27T00:23:46.998Z,100489
2015-09-27T00:24:05.357Z,100487
2015-09-27T00:24:23.060Z,100492
2015-09-27T00:24:41.422Z,100492
2015-09-27T00:24:59.782Z,100489
2015-09-27T00:25:18.141Z,100495
2015-09-27T00:25:36.504Z,100492
2015-09-27T00:25:54.863Z,100489
2015-09-27T00:26:13.222Z,100481
2015-09-27T00:26:31.584Z,100481
2015-09-27T00:26:49.943Z,100492
2015-09-27T00:27:08.302Z,100495
2015-09-27T00:27:26.646Z,100495
2015-09-27T00:27:45.008Z,100481
2015-09-27T00:28:03.367Z,100481
2015-09-27T00:28:21.726Z,100487
2015-09-27T00:28:40.090Z,100495
2015-09-27T00:28:58.449Z,100487
2015-09-27T00:29:16.808Z,100492
2015-09-27T00:29:35.170Z,100495
2015-09-27T00:29:53.529Z,100498
2015-09-27T00:30:11.889Z,100492
2015-09-27T00:30:30.251Z,100487
2015-09-27T00:30:48.610Z,100501
2015-09-27T00:31:06.970Z,100476
2015-09-27T00:31:25.329Z,100487
2015-09-27T00:31:43.691Z,100489
2015-09-27T00:32:02.051Z,100492
2015-09-27T00:32:20.410Z,100498
2015-09-27T00:32:38.757Z,100501
2015-09-27T00:32:57.116Z,100501
2015-09-27T00:33:15.491Z,100495
2015-09-27T00:33:33.853Z,100487
2015-09-27T00:33:52.212Z,100501
2015-09-27T00:34:10.571Z,100492
2015-09-27T00:34:28.915Z,100489
2015-09-27T00:34:47.278Z,100489
2015-09-27T00:35:05.653Z,100492
2015-09-27T00:35:23.996Z,100501
2015-09-27T00:35:41.702Z,100498
2015-09-27T00:36:00.062Z,100489
2015-09-27T00:36:18.421Z,100489
2015-09-27T00:36:36.798Z,100495
2015-09-27T00:36:55.158Z,100492
2015-09-27T00:37:13.501Z,100487
2015-09-27T00:37:31.876Z,100495
2015-09-27T00:37:50.239Z,100484
2015-09-27T00:38:08.598Z,100504
2015-09-27T00:38:26.301Z,100501
2015-09-27T00:38:44.663Z,100492
2015-09-27T00:39:03.022Z,100489
2015-09-27T00:39:21.366Z,100489
2015-09-27T00:39:39.728Z,100492
2015-09-27T00:39:58.087Z,100495
2015-09-27T00:40:16.447Z,100487
2015-09-27T00:40:34.806Z,100489
2015-09-27T00:40:53.169Z,100498
2015-09-27T00:41:11.528Z,100495
2015-09-27T00:41:29.903Z,100495
2015-09-27T00:41:48.265Z,100489
2015-09-27T00:42:06.625Z,100487
2015-09-27T00:42:24.984Z,100492
2015-09-27T00:42:43.345Z,100501
2015-09-27T00:43:01.689Z,100495
2015-09-27T00:43:20.049Z,100498
2015-09-27T00:43:38.411Z,100489
2015-09-27T00:43:56.786Z,100498
2015-09-27T00:44:15.130Z,100498
2015-09-27T00:44:33.489Z,100498
2015-09-27T00:44:51.851Z,100492
2015-09-27T00:45:10.211Z,100498
2015-09-27T00:45:28.570Z,100498
2015-09-27T00:45:46.933Z,100501
2015-09-27T00:46:05.292Z,100492
2015-09-27T00:46:23.651Z,100489
2015-09-27T00:46:41.997Z,100501
2015-09-27T00:47:00.356Z,100495
2015-09-27T00:47:18.716Z,100489
2015-09-27T00:47:37.075Z,100495
2015-09-27T00:47:55.438Z,100495
2015-09-27T00:48:13.797Z,100501
2015-09-27T00:48:32.156Z,100492
2015-09-27T00:48:50.519Z,100492
2015-09-27T00:49:08.878Z,100492
2015-09-27T00:49:27.237Z,100492
2015-09-27T00:49:45.599Z,100492
2015-09-27T00:50:03.958Z,100487
2015-09-27T00:50:21.677Z,100498
2015-09-27T00:50:40.052Z,100492
2015-09-27T00:50:58.383Z,100487
2015-09-27T00:51:16.742Z,100487
2015-09-27T00:51:35.102Z,100492
2015-09-27T00:51:52.807Z,100492
2015-09-27T00:52:11.166Z,100498
2015-09-27T00:52:29.526Z,100487
2015-09-27T00:52:47.888Z,100487
2015-09-27T00:53:06.247Z,100489
2015-09-27T00:53:24.607Z,100498
2015-09-27T00:53:42.966Z,100489
2015-09-27T00:54:01.329Z,100487
2015-09-27T00:54:19.688Z,100489
2015-09-27T00:54:38.047Z,100484
2015-09-27T00:54:56.410Z,100492
2015-09-27T00:55:14.769Z,100484
2015-09-27T00:55:33.128Z,100489
2015-09-27T00:55:51.490Z,100489
2015-09-27T00:56:09.849Z,100495
2015-09-27T00:56:28.209Z,100498
2015-09-27T00:56:46.568Z,100489
2015-09-27T00:57:04.931Z,100484
2015-09-27T00:57:23.291Z,100495
2015-09-27T00:57:41.650Z,100487
2015-09-27T00:58:00.136Z,100498
2015-09-27T00:58:17.183Z,100484
2015-09-27T00:58:34.886Z,100484
2015-09-27T00:58:53.265Z,100487
2015-09-27T00:59:11.609Z,100492
2015-09-27T00:59:29.969Z,100484
2015-09-27T00:59:48.328Z,100481
2015-09-27T01:00:06.689Z,100481
2015-09-27T01:00:25.064Z,100489
2015-09-27T01:00:43.408Z,100489
2015-09-27T01:01:01.769Z,100498
2015-09-27T01:01:20.144Z,100489
2015-09-27T01:01:38.488Z,100484
2015-09-27T01:01:56.852Z,100487
2015-09-27T01:02:15.055Z,100498
2015-09-27T01:02:33.430Z,100492
2015-09-27T01:02:51.773Z,100489
2015-09-27T01:03:10.136Z,100498
2015-09-27T01:03:28.495Z,100489
2015-09-27T01:03:46.855Z,100489
2015-09-27T01:04:05.059Z,100498
2015-09-27T01:04:23.418Z,100484
2015-09-27T01:04:41.777Z,100481
2015-09-27T01:05:00.140Z,100481
2015-09-27T01:05:18.499Z,100484
2015-09-27T01:05:36.859Z,100487
2015-09-27T01:05:55.062Z,100487
2015-09-27T01:06:13.424Z,100498
2015-09-27T01:06:31.783Z,100487
2015-09-27T01:06:50.143Z,100489
2015-09-27T01:07:08.505Z,100484
2015-09-27T01:07:26.865Z,100489
2015-09-27T01:07:45.224Z,100487
2015-09-27T01:08:03.586Z,100481
2015-09-27T01:08:21.946Z,100492
2015-09-27T01:08:40.149Z,100492
2015-09-27T01:08:57.852Z,100492
2015-09-27T01:09:16.213Z,100498
2015-09-27T01:09:34.573Z,100492
2015-09-27T01:09:52.932Z,100492
2015-09-27T01:10:11.294Z,100487
2015-09-27T01:10:29.654Z,100492
2015-09-27T01:10:48.013Z,100495
2015-09-27T01:11:06.376Z,100487
2015-09-27T01:11:24.735Z,100492
2015-09-27T01:11:43.079Z,100504
2015-09-27T01:12:01.438Z,100489
2015-09-27T01:12:19.800Z,100489
2015-09-27T01:12:38.160Z,100492
2015-09-27T01:12:56.519Z,100495
2015-09-27T01:13:14.882Z,100487
2015-09-27T01:13:33.241Z,100492
2015-09-27T01:13:51.600Z,100492
2015-09-27T01:14:09.305Z,100495
2015-09-27T01:14:27.665Z,100478
2015-09-27T01:14:46.024Z,100495
2015-09-27T01:15:04.384Z,100487
2015-09-27T01:15:22.870Z,100489
2015-09-27T01:15:41.229Z,100492
2015-09-27T01:15:59.589Z,100487
2015-09-27T01:16:17.951Z,100492
2015-09-27T01:16:36.310Z,100489
2015-09-27T01:16:54.670Z,100489
2015-09-27T01:17:13.032Z,100489
2015-09-27T01:17:31.392Z,100495
2015-09-27T01:17:49.755Z,100495
2015-09-27T01:18:08.130Z,100489
2015-09-27T01:18:26.492Z,100498
2015-09-27T01:18:44.852Z,100495
2015-09-27T01:19:03.211Z,100489
2015-09-27T01:19:21.573Z,100495
2015-09-27T01:19:39.776Z,100498
2015-09-27T01:19:58.136Z,100495
2015-09-27T01:20:16.498Z,100487
2015-09-27T01:20:34.858Z,100501
2015-09-27T01:20:53.217Z,100498
2015-09-27T01:21:11.578Z,100495
2015-09-27T01:21:29.938Z,100492
2015-09-27T01:21:48.297Z,100495
2015-09-27T01:22:06.656Z,100495
2015-09-27T01:22:25.019Z,100498
2015-09-27T01:22:43.363Z,100501
2015-09-27T01:23:01.722Z,100495
2015-09-27T01:23:20.083Z,100495
2015-09-27T01:23:38.443Z,100495
2015-09-27T01:23:56.802Z,100495
2015-09-27T01:24:15.164Z,100492
2015-09-27T01:24:33.524Z,100498
2015-09-27T01:24:51.883Z,100495
2015-09-27T01:25:10.243Z,100495
2015-09-27T01:25:28.605Z,100489
2015-09-27T01:25:46.308Z,100489
2015-09-27T01:26:04.792Z,100498
2015-09-27T01:26:23.154Z,100501
2015-09-27T01:26:41.513Z,100487
2015-09-27T01:27:00.013Z,100487
2015-09-27T01:27:18.377Z,100495
2015-09-27T01:27:36.736Z,100492
2015-09-27T01:27:55.095Z,100498
2015-09-27T01:28:12.798Z,100489
2015-09-27T01:28:31.160Z,100487
2015-09-27T01:28:49.519Z,100478
2015-09-27T01:29:07.879Z,100487
2015-09-27T01:29:26.241Z,100495
2015-09-27T01:29:44.600Z,100487
2015-09-27T01:30:02.944Z,100489
2015-09-27T01:30:21.306Z,100495
2015-09-27T01:30:39.666Z,100498
2015-09-27T01:30:58.025Z,100487
2015-09-27T01:31:16.385Z,100489
2015-09-27T01:31:34.746Z,100487
2015-09-27T01:31:52.449Z,100498
2015-09-27T01:32:10.808Z,100489
2015-09-27T01:32:29.171Z,100487
2015-09-27T01:32:47.530Z,100492
2015-09-27T01:33:05.890Z,100498
2015-09-27T01:33:24.252Z,100489
2015-09-27T01:33:42.736Z,100487
2015-09-27T01:34:01.096Z,100484
2015-09-27T01:34:19.455Z,100489
2015-09-27T01:34:37.817Z,100489
2015-09-27T01:34:56.177Z,100489
2015-09-27T01:35:14.536Z,100495
2015-09-27T01:35:32.898Z,100492
2015-09-27T01:35:51.257Z,100489
2015-09-27T01:36:09.757Z,100498
2015-09-27T01:36:27.963Z,100487
2015-09-27T01:36:46.307Z,100495
2015-09-27T01:37:04.682Z,100495
2015-09-27T01:37:23.029Z,100498
2015-09-27T01:37:41.388Z,100495
2015-09-27T01:37:59.747Z,100495
2015-09-27T01:38:18.107Z,100501
2015-09-27T01:38:36.469Z,100492
2015-09-27T01:38:54.828Z,100495
2015-09-27T01:39:13.188Z,100495
2015-09-27T01:39:30.893Z,100489
2015-09-27T01:39:49.252Z,100501
2015-09-27T01:40:07.612Z,100489
2015-09-27T01:40:25.974Z,100492
2015-09-27T01:40:44.333Z,100495
2015-09-27T01:41:02.693Z,100489
2015-09-27T01:41:21.052Z,100492
2015-09-27T01:41:39.415Z,100495
2015-09-27T01:41:57.758Z,100492
2015-09-27T01:42:16.118Z,100489
2015-09-27T01:42:34.495Z,100489
2015-09-27T01:42:52.838Z,100492
2015-09-27T01:43:11.198Z,100495
2015-09-27T01:43:29.560Z,100501
2015-09-27T01:43:47.920Z,100498
2015-09-27T01:44:05.607Z,100495
2015-09-27T01:44:23.966Z,100495
2015-09-27T01:44:42.344Z,100498
2015-09-27T01:45:00.688Z,100495
2015-09-27T01:45:19.048Z,100489
2015-09-27T01:45:37.410Z,100489
2015-09-27T01:45:55.769Z,100495
2015-09-27T01:46:14.129Z,100498
2015-09-27T01:46:32.490Z,100498
2015-09-27T01:46:50.849Z,100489
2015-09-27T01:47:09.209Z,100498
2015-09-27T01:47:27.570Z,100501
2015-09-27T01:47:45.930Z,100489
2015-09-27T01:48:04.289Z,100489
2015-09-27T01:48:22.664Z,100501
2015-09-27T01:48:41.011Z,100492
2015-09-27T01:48:59.370Z,100495
2015-09-27T01:49:17.073Z,100506
2015-09-27T01:49:35.420Z,100484
2015-09-27T01:49:53.139Z,100495
2015-09-27T01:50:11.498Z,100506
2015-09-27T01:50:29.860Z,100501
2015-09-27T01:50:48.220Z,100495
2015-09-27T01:51:06.579Z,100489
2015-09-27T01:51:24.939Z,100495
2015-09-27T01:51:42.644Z,100506
2015-09-27T01:52:01.003Z,100495
2015-09-27T01:52:18.706Z,100498
2015-09-27T01:52:37.070Z,100501
2015-09-27T01:52:55.429Z,100501
2015-09-27T01:53:13.788Z,100506
2015-09-27T01:53:32.150Z,100504
2015-09-27T01:53:50.509Z,100498
2015-09-27T01:54:08.868Z,100509
2015-09-27T01:54:27.228Z,100501
2015-09-27T01:54:45.590Z,100498
2015-09-27T01:55:03.965Z,100506
2015-09-27T01:55:22.309Z,100501
2015-09-27T01:55:40.671Z,100506
2015-09-27T01:55:59.031Z,100509
2015-09-27T01:56:17.390Z,100501
2015-09-27T01:56:35.751Z,100495
2015-09-27T01:56:54.111Z,100495
2015-09-27T01:57:12.470Z,100498
2015-09-27T01:57:30.830Z,100495
2015-09-27T01:57:48.520Z,100503
2015-09-27T01:58:06.879Z,100501
2015-09-27T01:58:25.239Z,100506
2015-09-27T01:58:43.601Z,100506
2015-09-27T01:59:01.961Z,100503
2015-09-27T01:59:20.320Z,100501
2015-09-27T01:59:38.697Z,100503
2015-09-27T01:59:57.056Z,100509
2015-09-27T02:00:15.416Z,100518
2015-09-27T02:00:33.775Z,100509
2015-09-27T02:00:52.137Z,100509
2015-09-27T02:01:10.497Z,100503
2015-09-27T02:01:28.856Z,100509
2015-09-27T02:01:47.062Z,100512
2015-09-27T02:02:05.422Z,100506
2015-09-27T02:02:23.797Z,100512
2015-09-27T02:02:41.502Z,100509
2015-09-27T02:02:59.861Z,100515
2015-09-27T02:03:18.221Z,100512
2015-09-27T02:03:36.580Z,100515
2015-09-27T02:03:54.942Z,100518
2015-09-27T02:04:13.302Z,100512
2015-09-27T02:04:31.661Z,100506
2015-09-27T02:04:50.023Z,100512
2015-09-27T02:05:08.383Z,100515
2015-09-27T02:05:26.742Z,100506
2015-09-27T02:05:45.089Z,100518
2015-09-27T02:06:03.308Z,100518
2015-09-27T02:06:21.651Z,100506
2015-09-27T02:06:40.011Z,100518
2015-09-27T02:06:58.373Z,100520
2015-09-27T02:07:16.733Z,100506
2015-09-27T02:07:35.092Z,100518
2015-09-27T02:07:53.453Z,100518
2015-09-27T02:08:11.813Z,100503
2015-09-27T02:08:30.172Z,100498
2015-09-27T02:08:48.534Z,100506
2015-09-27T02:09:06.894Z,100503
2015-09-27T02:09:25.253Z,100518
2015-09-27T02:09:43.613Z,100518
2015-09-27T02:10:01.975Z,100506
2015-09-27T02:10:20.334Z,100501
2015-09-27T02:10:38.694Z,100512
2015-09-27T02:10:57.055Z,100503
2015-09-27T02:11:15.555Z,100515
2015-09-27T02:11:33.258Z,100518
2015-09-27T02:11:51.449Z,100515
2015-09-27T02:12:09.808Z,100523
2015-09-27T02:12:28.183Z,100512
2015-09-27T02:12:46.527Z,100512
2015-09-27T02:13:04.889Z,100518
2015-09-27T02:13:23.249Z,100518
2015-09-27T02:13:41.608Z,100518
2015-09-27T02:13:59.969Z,100512
2015-09-27T02:14:18.329Z,100512
2015-09-27T02:14:36.688Z,100523
2015-09-27T02:14:55.050Z,100512
2015-09-27T02:15:13.410Z,100515
2015-09-27T02:15:31.754Z,100518
2015-09-27T02:15:50.113Z,100509
2015-09-27T02:16:08.475Z,100518
2015-09-27T02:16:26.835Z,100506
2015-09-27T02:16:45.194Z,100515
2015-09-27T02:17:03.556Z,100512
2015-09-27T02:17:21.916Z,100506
2015-09-27T02:17:40.275Z,100520
2015-09-27T02:17:58.638Z,100512
2015-09-27T02:18:16.997Z,100515
2015-09-27T02:18:35.356Z,100515
2015-09-27T02:18:53.716Z,100532
2015-09-27T02:19:12.078Z,100526
2015-09-27T02:19:29.781Z,100518
2015-09-27T02:19:48.141Z,100523
2015-09-27T02:20:06.502Z,100518
2015-09-27T02:20:24.861Z,100512
2015-09-27T02:20:43.064Z,100523
2015-09-27T02:21:01.442Z,100526
2015-09-27T02:21:19.786Z,100523
2015-09-27T02:21:38.146Z,100523
2015-09-27T02:21:56.505Z,100532
2015-09-27T02:22:14.867Z,100520
2015-09-27T02:22:33.227Z,100518
2015-09-27T02:22:51.586Z,100532
2015-09-27T02:23:09.948Z,100532
2015-09-27T02:23:28.308Z,100529
2015-09-27T02:23:46.667Z,100523
2015-09-27T02:24:05.029Z,100532
2015-09-27T02:24:23.388Z,100526
2015-09-27T02:24:41.747Z,100537
2015-09-27T02:25:00.107Z,100535
2015-09-27T02:25:18.468Z,100526
2015-09-27T02:25:36.827Z,100520
2015-09-27T02:25:55.187Z,100526
2015-09-27T02:26:13.549Z,100532
2015-09-27T02:26:31.909Z,100526
2015-09-27T02:26:50.268Z,100518
2015-09-27T02:27:08.630Z,100529
2015-09-27T02:27:26.990Z,100523
2015-09-27T02:27:45.349Z,100518
2015-09-27T02:28:03.708Z,100518
2015-09-27T02:28:21.915Z,100529
2015-09-27T02:28:40.274Z,100518
2015-09-27T02:28:58.633Z,100526
2015-09-27T02:29:16.995Z,100518
2015-09-27T02:29:35.354Z,100532
2015-09-27T02:29:53.713Z,100515
2015-09-27T02:30:12.061Z,100526
2015-09-27T02:30:30.421Z,100529
2015-09-27T02:30:48.780Z,100535
2015-09-27T02:31:07.139Z,100535
2015-09-27T02:31:25.501Z,100520
2015-09-27T02:31:43.860Z,100520
2015-09-27T02:32:02.219Z,100523
2015-09-27T02:32:20.597Z,100518
2015-09-27T02:32:38.957Z,100526
2015-09-27T02:32:57.316Z,100532
2015-09-27T02:33:15.522Z,100523
2015-09-27T02:33:33.882Z,100520
2015-09-27T02:33:52.241Z,100526
2015-09-27T02:34:09.944Z,100518
2015-09-27T02:34:28.306Z,100526
2015-09-27T02:34:46.665Z,100518
2015-09-27T02:35:05.024Z,100520
2015-09-27T02:35:23.388Z,100526
2015-09-27T02:35:41.747Z,100515
2015-09-27T02:36:00.106Z,100526
2015-09-27T02:36:18.468Z,100526
2015-09-27T02:36:36.812Z,100532
2015-09-27T02:36:55.171Z,100509
2015-09-27T02:37:13.390Z,100526
2015-09-27T02:37:31.751Z,100523
2015-09-27T02:37:50.126Z,100526
2015-09-27T02:38:08.485Z,100529
2015-09-27T02:38:26.833Z,100512
2015-09-27T02:38:44.552Z,100526
2015-09-27T02:39:02.896Z,100523
2015-09-27T02:39:21.258Z,100520
2015-09-27T02:39:39.617Z,100526
2015-09-27T02:39:57.977Z,100526
2015-09-27T02:40:16.352Z,100529
2015-09-27T02:40:34.697Z,100526
2015-09-27T02:40:53.056Z,100526
2015-09-27T02:41:11.415Z,100526
2015-09-27T02:41:29.779Z,100535
2015-09-27T02:41:48.138Z,100526
2015-09-27T02:42:06.497Z,100529
2015-09-27T02:42:24.859Z,100523
2015-09-27T02:42:43.218Z,100529
2015-09-27T02:43:01.578Z,100535
2015-09-27T02:43:19.781Z,100526
2015-09-27T02:43:38.143Z,100535
2015-09-27T02:43:56.502Z,100526
2015-09-27T02:44:14.206Z,100526
2015-09-27T02:44:32.568Z,100523
2015-09-27T02:44:50.927Z,100523
2015-09-27T02:45:09.287Z,100518
2015-09-27T02:45:27.648Z,100518
2015-09-27T02:45:46.007Z,100523
2015-09-27T02:46:04.351Z,100520
2015-09-27T02:46:22.057Z,100520
2015-09-27T02:46:40.432Z,100526
2015-09-27T02:46:58.776Z,100523
2015-09-27T02:47:17.151Z,100518
2015-09-27T02:47:35.513Z,100523
2015-09-27T02:47:53.857Z,100515
2015-09-27T02:48:11.576Z,100515
2015-09-27T02:48:29.937Z,100523
2015-09-27T02:48:48.297Z,100515
2015-09-27T02:49:06.656Z,100526
2015-09-27T02:49:25.018Z,100523
2015-09-27T02:49:43.378Z,100532
2015-09-27T02:50:01.737Z,100529
2015-09-27T02:50:20.097Z,100526
2015-09-27T02:50:38.459Z,100529
2015-09-27T02:50:56.818Z,100515
2015-09-27T02:51:15.178Z,100526
2015-09-27T02:51:33.540Z,100532
2015-09-27T02:51:51.899Z,100529
2015-09-27T02:52:09.603Z,100537
2015-09-27T02:52:27.965Z,100526
2015-09-27T02:52:46.324Z,100523
2015-09-27T02:53:04.684Z,100526
2015-09-27T02:53:23.029Z,100523
2015-09-27T02:53:41.389Z,100526
2015-09-27T02:53:59.764Z,100520
2015-09-27T02:54:18.248Z,100529
2015-09-27T02:54:36.611Z,100529
2015-09-27T02:54:54.970Z,100526
2015-09-27T02:55:13.329Z,100529
2015-09-27T02:55:31.691Z,100518
2015-09-27T02:55:50.050Z,100518
2015-09-27T02:56:08.425Z,100523
2015-09-27T02:56:26.773Z,100512
2015-09-27T02:56:45.132Z,100526
2015-09-27T02:57:03.492Z,100526
2015-09-27T02:57:21.851Z,100518
2015-09-27T02:57:39.556Z,100518
2015-09-27T02:57:57.915Z,100523
2015-09-27T02:58:16.275Z,100520
2015-09-27T02:58:33.980Z,100526
2015-09-27T02:58:52.339Z,100520
2015-09-27T02:59:10.699Z,100526
2015-09-27T02:59:29.061Z,100523
2015-09-27T02:59:47.545Z,100526
2015-09-27T03:00:05.905Z,100532
2015-09-27T03:00:24.264Z,100526
2015-09-27T03:00:42.642Z,100526
2015-09-27T03:01:00.986Z,100526
2015-09-27T03:01:19.361Z,100523
2015-09-27T03:01:37.707Z,100526
2015-09-27T03:01:56.066Z,100526
2015-09-27T03:02:14.441Z,100529
2015-09-27T03:02:32.804Z,100526
2015-09-27T03:02:50.508Z,100526
2015-09-27T03:03:08.867Z,100526
2015-09-27T03:03:27.226Z,100523
2015-09-27T03:03:45.572Z,100532
2015-09-27T03:04:03.931Z,100526
2015-09-27T03:04:22.291Z,100529
2015-09-27T03:04:40.653Z,100526
2015-09-27T03:04:59.028Z,100523
2015-09-27T03:05:17.388Z,100532
2015-09-27T03:05:35.750Z,100523
2015-09-27T03:05:54.109Z,100520
2015-09-27T03:06:12.453Z,100526
2015-09-27T03:06:30.812Z,100532
2015-09-27T03:06:49.174Z,100526
2015-09-27T03:07:07.533Z,100526
2015-09-27T03:07:25.908Z,100526
2015-09-27T03:07:44.255Z,100529
2015-09-27T03:08:02.474Z,100526
2015-09-27T03:08:20.849Z,100529
2015-09-27T03:08:39.195Z,100523
2015-09-27T03:08:57.539Z,100526
2015-09-27T03:09:15.899Z,100537
2015-09-27T03:09:34.258Z,100520
2015-09-27T03:09:52.480Z,100523
2015-09-27T03:10:10.839Z,100526
2015-09-27T03:10:29.198Z,100529
2015-09-27T03:10:47.561Z,100535
2015-09-27T03:11:05.920Z,100520
2015-09-27T03:11:24.280Z,100526
2015-09-27T03:11:42.641Z,100532
2015-09-27T03:12:01.000Z,100537
2015-09-27T03:12:19.375Z,100526
2015-09-27T03:12:37.719Z,100535
2015-09-27T03:12:56.081Z,100523
2015-09-27T03:13:14.441Z,100537
2015-09-27T03:13:32.800Z,100523
2015-09-27T03:13:51.162Z,100520
2015-09-27T03:14:09.521Z,100537
2015-09-27T03:14:27.880Z,100529
2015-09-27T03:14:46.243Z,100532
2015-09-27T03:15:04.602Z,100526
2015-09-27T03:15:22.961Z,100537
2015-09-27T03:15:40.665Z,100526
2015-09-27T03:15:59.011Z,100523
2015-09-27T03:16:17.371Z,100535
2015-09-27T03:16:35.730Z,100532
2015-09-27T03:16:54.092Z,100537
2015-09-27T03:17:12.452Z,100526
2015-09-27T03:17:30.827Z,100532
2015-09-27T03:17:49.173Z,100532
2015-09-27T03:18:07.532Z,100532
2015-09-27T03:18:25.876Z,100535
2015-09-27T03:18:44.235Z,100526
2015-09-27T03:19:02.597Z,100529
2015-09-27T03:19:20.972Z,100526
2015-09-27T03:19:39.332Z,100537
2015-09-27T03:19:57.038Z,100532
2015-09-27T03:20:15.397Z,100529
2015-09-27T03:20:33.757Z,100526
2015-09-27T03:20:52.118Z,100529
2015-09-27T03:21:09.821Z,100537
2015-09-27T03:21:28.181Z,100529
2015-09-27T03:21:46.540Z,100532
2015-09-27T03:22:04.903Z,100532
2015-09-27T03:22:23.263Z,100543
2015-09-27T03:22:41.622Z,100532
2015-09-27T03:22:59.983Z,100532
2015-09-27T03:23:18.343Z,100546
2015-09-27T03:23:36.702Z,100540
2015-09-27T03:23:55.065Z,100529
2015-09-27T03:24:13.424Z,100540
2015-09-27T03:24:31.783Z,100529
2015-09-27T03:24:50.143Z,100537
2015-09-27T03:25:08.505Z,100537
2015-09-27T03:25:26.208Z,100532
2015-09-27T03:25:44.568Z,100543
2015-09-27T03:26:02.929Z,100537
2015-09-27T03:26:21.288Z,100540
2015-09-27T03:26:39.648Z,100532
2015-09-27T03:26:58.010Z,100537
2015-09-27T03:27:16.369Z,100543
2015-09-27T03:27:34.729Z,100532
2015-09-27T03:27:53.088Z,100543
2015-09-27T03:28:11.466Z,100537
2015-09-27T03:28:29.826Z,100537
2015-09-27T03:28:48.169Z,100537
2015-09-27T03:29:06.532Z,100537
2015-09-27T03:29:24.891Z,100549
2015-09-27T03:29:43.250Z,100537
2015-09-27T03:30:01.612Z,100549
2015-09-27T03:30:19.971Z,100534
2015-09-27T03:30:38.346Z,100543
2015-09-27T03:30:56.690Z,100546
2015-09-27T03:31:15.052Z,100551
2015-09-27T03:31:32.755Z,100543
2015-09-27T03:31:51.115Z,100543
2015-09-27T03:32:09.493Z,100537
2015-09-27T03:32:27.837Z,100532
2015-09-27T03:32:46.196Z,100543
2015-09-27T03:33:04.558Z,100546
2015-09-27T03:33:22.918Z,100546
2015-09-27T03:33:41.277Z,100543
2015-09-27T03:33:59.636Z,100540
2015-09-27T03:34:17.999Z,100549
2015-09-27T03:34:36.358Z,100543
2015-09-27T03:34:54.718Z,100549
2015-09-27T03:35:13.079Z,100551
2015-09-27T03:35:31.438Z,100549
2015-09-27T03:35:49.798Z,100537
2015-09-27T03:36:08.160Z,100551
2015-09-27T03:36:26.519Z,100540
2015-09-27T03:36:44.879Z,100543
2015-09-27T03:37:03.240Z,100543
2015-09-27T03:37:21.600Z,100537
2015-09-27T03:37:39.959Z,100549
2015-09-27T03:37:57.662Z,100546
2015-09-27T03:38:16.024Z,100549
2015-09-27T03:38:34.384Z,100549
2015-09-27T03:38:52.087Z,100549
2015-09-27T03:39:10.589Z,100549
2015-09-27T03:39:28.948Z,100543
2015-09-27T03:39:47.308Z,100543
2015-09-27T03:40:05.670Z,100546
2015-09-27T03:40:24.014Z,100543
2015-09-27T03:40:41.733Z,100543
2015-09-27T03:41:00.076Z,100546
2015-09-27T03:41:18.440Z,100554
2015-09-27T03:41:36.799Z,100546
2015-09-27T03:41:55.158Z,100549
2015-09-27T03:42:13.520Z,100546
2015-09-27T03:42:31.879Z,100543
2015-09-27T03:42:49.582Z,100543
2015-09-27T03:43:07.945Z,100546
2015-09-27T03:43:26.304Z,100549
2015-09-27T03:43:44.663Z,100554
2015-09-27T03:44:03.038Z,100543
2015-09-27T03:44:21.384Z,100551
2015-09-27T03:44:39.103Z,100554
2015-09-27T03:44:57.462Z,100546
2015-09-27T03:45:15.825Z,100543
2015-09-27T03:45:33.528Z,100551
2015-09-27T03:45:51.887Z,100549
2015-09-27T03:46:10.250Z,100543
2015-09-27T03:46:28.609Z,100554
2015-09-27T03:46:46.968Z,100543
2015-09-27T03:47:05.328Z,100551
2015-09-27T03:47:23.690Z,100551
2015-09-27T03:47:42.049Z,100554
2015-09-27T03:48:00.393Z,100543
2015-09-27T03:48:18.770Z,100543
2015-09-27T03:48:37.130Z,100543